Terminal Aerodrome Forecast
Issued by NWS

Home | Current Version | Previous Version | Text Only | Print | Product List | Glossary On
Versions: 1 2 3 4 5 6 7 8 9 10 11 12 13 14 15 16
141
FTUS43 KMQT 071335 AAA
TAFIWD
TAF AMD
KIWD 071335Z 0714/0812 21010KT 5SM -SN OVC014
     FM072000 25009KT 1 1/2SM -SN OVC007
     FM080300 28008KT 1 1/2SM -SN OVC005
     FM080500 32008KT 1SM -SN OVC007
      AMD LTD TO CLD VIS AND WIND=

USA.gov is the U.S. government's official web portal to all federal, state and local government web resources and services.